Time;durP1;ratioP1;P1;durP2;ratioP2;P2;SDS_P1;SDS_P2;PMS_P1;PMS_P2;Temp;Humidity;BMP_temperature;BMP_pressure;BME280_temperature;BME280_humidity;BME280_pressure;Samples;Min_cycle;Max_cycle;Signal;HPM_P1;HPM_P2
2024/01/15 00:01:49;;;;;;;;;;;;;;;;;;5033096;28;832;-76
2024/01/15 00:04:15;;;;;;;;;;;;;;;;;;5048548;28;1894;-76
2024/01/15 00:06:40;;;;;;;;;;;;;;;;;;5032255;28;1247;-76
2024/01/15 00:09:06;;;;;;;;;;;;;;;;;;5031731;28;1173;-77
2024/01/15 00:11:32;;;;;;;;;;;;;;;;;;5015477;28;1520;-76
2024/01/15 00:13:57;;;;;;;;;;;;;;;;;;5033422;28;1007;-76
2024/01/15 00:16:22;;;;;;;;;;;;;;;;;;5033395;28;1066;-77
2024/01/15 00:18:47;;;;;;;;;;;;;;;;;;5033725;28;1022;-76
2024/01/15 00:21:12;;;;;;;;;;;;;;;;;;5033561;28;1167;-77
2024/01/15 00:23:41;;;;;;;;;;;;;;;;;;5033028;28;1902;-73
2024/01/15 00:26:07;;;;;;;;;;;;;;;;;;5030883;28;1011;-71
2024/01/15 00:28:32;;;;;;;;;;;;;;;;;;5030807;28;908;-72
2024/01/15 00:30:57;;;;;;;;;;;;;;;;;;5047195;28;1138;-71
2024/01/15 00:33:22;;;;;;;;;;;;;;;;;;5032385;28;828;-70
2024/01/15 00:35:47;;;;;;;;;;;;;;;;;;5032410;28;940;-71
2024/01/15 00:38:13;;;;;;;;;;;;;;;;;;5032671;28;1054;-71
2024/01/15 00:40:38;;;;;;;;;;;;;;;;;;5032446;28;915;-70
2024/01/15 00:43:04;;;;;;;;;;;;;;;;;;5033960;28;1972;-73
2024/01/15 00:45:29;;;;;;;;;;;;;;;;;;5036217;28;841;-78
2024/01/15 00:47:56;;;;;;;;;;;;;;;;;;5036201;28;840;-77
2024/01/15 00:50:21;;;;;;;;;;;;;;;;;;5036524;28;834;-77
2024/01/15 00:52:46;;;;;;;;;;;;;;;;;;5036121;28;896;-78
2024/01/15 00:55:12;;;;;;;;;;;;;;;;;;5035123;28;1477;-72
2024/01/15 00:57:37;;;;;;;;;;;;;;;;;;5035729;28;899;-72
2024/01/15 01:00:02;;;;;;;;;;;;;;;;;;5034940;28;1260;-72
2024/01/15 01:02:27;;;;;;;;;;;;;;;;;;5015137;28;1981;-72
2024/01/15 01:04:52;;;;;;;;;;;;;;;;;;5033029;28;1149;-72
2024/01/15 01:07:19;;;;;;;;;;;;;;;;;;5035955;28;964;-73
2024/01/15 01:09:45;;;;;;;;;;;;;;;;;;5035684;28;860;-72
2024/01/15 01:12:10;;;;;;;;;;;;;;;;;;5034523;28;1164;-78
2024/01/15 01:14:35;;;;;;;;;;;;;;;;;;5035278;28;832;-77
2024/01/15 01:17:01;;;;;;;;;;;;;;;;;;5036153;28;924;-77
2024/01/15 01:19:26;;;;;;;;;;;;;;;;;;5036096;28;801;-77
2024/01/15 01:21:51;;;;;;;;;;;;;;;;;;5036413;28;782;-78
2024/01/15 01:24:16;;;;;;;;;;;;;;;;;;5036344;28;1906;-76
2024/01/15 01:26:42;;;;;;;;;;;;;;;;;;5035977;28;995;-77
2024/01/15 01:29:07;;;;;;;;;;;;;;;;;;5034832;28;1266;-77
2024/01/15 01:31:32;;;;;;;;;;;;;;;;;;5035930;28;813;-77
2024/01/15 01:33:58;;;;;;;;;;;;;;;;;;5035630;28;991;-77
2024/01/15 01:36:23;;;;;;;;;;;;;;;;;;5035691;28;1039;-76
2024/01/15 01:38:48;;;;;;;;;;;;;;;;;;5034487;28;1262;-76
2024/01/15 01:41:13;;;;;;;;;;;;;;;;;;5050966;28;1271;-76
2024/01/15 01:43:38;;;;;;;;;;;;;;;;;;5035548;28;1906;-77
2024/01/15 01:46:05;;;;;;;;;;;;;;;;;;5035504;28;840;-76
2024/01/15 01:48:31;;;;;;;;;;;;;;;;;;5033433;28;1068;-76
2024/01/15 01:50:57;;;;;;;;;;;;;;;;;;5035103;28;999;-76
2024/01/15 01:53:23;;;;;;;;;;;;;;;;;;5033827;28;1268;-76
2024/01/15 01:55:49;;;;;;;;;;;;;;;;;;5034566;28;1003;-77
2024/01/15 01:58:15;;;;;;;;;;;;;;;;;;5035491;28;1058;-76
2024/01/15 02:00:40;;;;;;;;;;;;;;;;;;5035257;28;1039;-76
2024/01/15 02:03:05;;;;;;;;;;;;;;;;;;5050056;28;1914;-77
2024/01/15 02:05:31;;;;;;;;;;;;;;;;;;5034577;28;1204;-76
2024/01/15 02:07:56;;;;;;;;;;;;;;;;;;5033374;28;1269;-77
2024/01/15 02:10:21;;;;;;;;;;;;;;;;;;5050623;28;1250;-72
2024/01/15 02:12:48;;;;;;;;;;;;;;;;;;5033249;28;1169;-71
2024/01/15 02:15:13;;;;;;;;;;;;;;;;;;5034212;28;873;-71
2024/01/15 02:17:56;;;;;;;;;;;;;;;;;;5034621;28;991;-71
2024/01/15 02:20:21;;;;;;;;;;;;;;;;;;5034454;28;1063;-72
2024/01/15 02:22:46;;;;;;;;;;;;;;;;;;5034744;28;1910;-77
2024/01/15 02:25:12;;;;;;;;;;;;;;;;;;5034769;28;908;-76
2024/01/15 02:27:37;;;;;;;;;;;;;;;;;;5033741;28;1156;-77
2024/01/15 02:30:02;;;;;;;;;;;;;;;;;;5034570;28;1007;-76
2024/01/15 02:32:27;;;;;;;;;;;;;;;;;;5034130;28;829;-71
2024/01/15 02:34:53;;;;;;;;;;;;;;;;;;5032510;28;1147;-72
2024/01/15 02:37:18;;;;;;;;;;;;;;;;;;5049696;28;1184;-71
2024/01/15 02:39:43;;;;;;;;;;;;;;;;;;5032339;28;1286;-71
2024/01/15 02:42:09;;;;;;;;;;;;;;;;;;5034243;28;833;-71
2024/01/15 02:44:34;;;;;;;;;;;;;;;;;;5034191;28;1901;-77
2024/01/15 02:46:59;;;;;;;;;;;;;;;;;;5032884;28;1634;-77
2024/01/15 02:49:24;;;;;;;;;;;;;;;;;;5049532;28;1182;-77
2024/01/15 02:51:50;;;;;;;;;;;;;;;;;;5033402;28;1252;-77
2024/01/15 02:54:15;;;;;;;;;;;;;;;;;;5034418;28;887;-77
2024/01/15 02:56:40;;;;;;;;;;;;;;;;;;5034132;28;1035;-77
2024/01/15 02:59:05;;;;;;;;;;;;;;;;;;5034308;28;833;-77
2024/01/15 03:01:30;;;;;;;;;;;;;;;;;;5049740;28;1191;-77
2024/01/15 03:03:57;;;;;;;;;;;;;;;;;;5034015;28;1898;-76
2024/01/15 03:06:22;;;;;;;;;;;;;;;;;;5031837;28;1297;-72
2024/01/15 03:08:47;;;;;;;;;;;;;;;;;;5033794;28;1087;-71
2024/01/15 03:11:12;;;;;;;;;;;;;;;;;;5033987;28;900;-72
2024/01/15 03:13:38;;;;;;;;;;;;;;;;;;5033459;28;857;-71
2024/01/15 03:16:04;;;;;;;;;;;;;;;;;;5033541;28;992;-72
2024/01/15 03:18:29;;;;;;;;;;;;;;;;;;5048825;28;1245;-71
2024/01/15 03:20:54;;;;;;;;;;;;;;;;;;5031945;28;1140;-71
2024/01/15 03:23:19;;;;;;;;;;;;;;;;;;5033511;28;1934;-71
2024/01/15 03:25:45;;;;;;;;;;;;;;;;;;5048839;28;1310;-72
2024/01/15 03:28:10;;;;;;;;;;;;;;;;;;5033275;28;825;-71
2024/01/15 03:30:35;;;;;;;;;;;;;;;;;;5033193;28;885;-71
2024/01/15 03:33:00;;;;;;;;;;;;;;;;;;5032958;28;865;-71
2024/01/15 03:35:29;;;;;;;;;;;;;;;;;;5033298;28;987;-71
2024/01/15 03:37:54;;;;;;;;;;;;;;;;;;5031958;28;1235;-71
2024/01/15 03:40:19;;;;;;;;;;;;;;;;;;5033637;28;1228;-71
2024/01/15 03:42:44;;;;;;;;;;;;;;;;;;5031979;28;1922;-71
2024/01/15 03:45:10;;;;;;;;;;;;;;;;;;5031664;28;1179;-71
2024/01/15 03:47:35;;;;;;;;;;;;;;;;;;5033048;28;817;-71
2024/01/15 03:50:00;;;;;;;;;;;;;;;;;;5031453;28;1152;-71
2024/01/15 03:52:25;;;;;;;;;;;;;;;;;;5033174;28;844;-71
2024/01/15 03:54:51;;;;;;;;;;;;;;;;;;5033178;28;833;-70
2024/01/15 03:57:16;;;;;;;;;;;;;;;;;;5035591;28;1022;-71
2024/01/15 03:59:41;;;;;;;;;;;;;;;;;;5032689;28;955;-70
2024/01/15 04:02:07;;;;;;;;;;;;;;;;;;5033193;28;813;-71
2024/01/15 04:04:32;;;;;;;;;;;;;;;;;;5048143;28;1875;-71
2024/01/15 04:06:57;;;;;;;;;;;;;;;;;;5032982;28;793;-70
2024/01/15 04:09:22;;;;;;;;;;;;;;;;;;5045515;28;995;-70
2024/01/15 04:11:47;;;;;;;;;;;;;;;;;;5051262;28;1046;-71
2024/01/15 04:14:13;;;;;;;;;;;;;;;;;;5051165;28;1149;-71
2024/01/15 04:16:38;;;;;;;;;;;;;;;;;;5051811;28;895;-71
2024/01/15 04:19:03;;;;;;;;;;;;;;;;;;5052934;28;1255;-71
2024/01/15 04:21:28;;;;;;;;;;;;;;;;;;5070404;28;1363;-70
2024/01/15 04:23:54;;;;;;;;;;;;;;;;;;5025117;28;1890;-71
2024/01/15 04:26:19;;;;;;;;;;;;;;;;;;5038919;28;967;-71
2024/01/15 04:28:44;;;;;;;;;;;;;;;;;;5038575;28;904;-70
2024/01/15 04:31:09;;;;;;;;;;;;;;;;;;5036561;28;1193;-71
2024/01/15 04:33:34;;;;;;;;;;;;;;;;;;5037766;28;798;-71
2024/01/15 04:36:03;;;;;;;;;;;;;;;;;;5038054;28;972;-71
2024/01/15 04:38:29;;;;;;;;;;;;;;;;;;5039916;28;1020;-71
2024/01/15 04:40:54;;;;;;;;;;;;;;;;;;5041089;28;1010;-71
2024/01/15 04:43:19;;;;;;;;;;;;;;;;;;5037002;28;1898;-72
2024/01/15 04:45:44;;;;;;;;;;;;;;;;;;5037233;28;960;-71
2024/01/15 04:48:10;;;;;;;;;;;;;;;;;;5037061;28;809;-72
2024/01/15 04:50:35;;;;;;;;;;;;;;;;;;5036821;28;837;-71
2024/01/15 04:53:00;;;;;;;;;;;;;;;;;;5051929;28;1134;-71
2024/01/15 04:55:25;;;;;;;;;;;;;;;;;;5036234;28;943;-71
2024/01/15 04:57:50;;;;;;;;;;;;;;;;;;5036248;28;951;-71
2024/01/15 05:00:16;;;;;;;;;;;;;;;;;;5051794;28;1203;-71
2024/01/15 05:02:41;;;;;;;;;;;;;;;;;;5034631;28;1972;-71
2024/01/15 05:05:06;;;;;;;;;;;;;;;;;;5015890;28;1152;-71
2024/01/15 05:07:32;;;;;;;;;;;;;;;;;;5014696;28;1188;-71
2024/01/15 05:09:57;;;;;;;;;;;;;;;;;;5032945;28;1331;-71
2024/01/15 05:12:24;;;;;;;;;;;;;;;;;;5022871;28;1295;-71
2024/01/15 05:14:49;;;;;;;;;;;;;;;;;;5033426;28;1220;-71
2024/01/15 05:17:14;;;;;;;;;;;;;;;;;;5033609;28;1169;-72
2024/01/15 05:19:39;;;;;;;;;;;;;;;;;;5032653;28;1279;-71
2024/01/15 05:22:05;;;;;;;;;;;;;;;;;;5014636;28;1129;-71
2024/01/15 05:24:30;;;;;;;;;;;;;;;;;;5035419;28;1914;-72
2024/01/15 05:26:55;;;;;;;;;;;;;;;;;;5035749;28;832;-71
2024/01/15 05:29:20;;;;;;;;;;;;;;;;;;5034470;28;863;-71
2024/01/15 05:31:45;;;;;;;;;;;;;;;;;;5035097;28;821;-71
2024/01/15 05:34:11;;;;;;;;;;;;;;;;;;5035387;28;1006;-72
2024/01/15 05:36:36;;;;;;;;;;;;;;;;;;5035517;28;824;-71
2024/01/15 05:39:02;;;;;;;;;;;;;;;;;;5035511;28;841;-71
2024/01/15 05:41:28;;;;;;;;;;;;;;;;;;5017433;28;1190;-71
2024/01/15 05:43:53;;;;;;;;;;;;;;;;;;5034631;28;1906;-72
2024/01/15 05:46:18;;;;;;;;;;;;;;;;;;5050513;28;1189;-71
2024/01/15 05:48:43;;;;;;;;;;;;;;;;;;5050571;28;1168;-71
2024/01/15 05:51:09;;;;;;;;;;;;;;;;;;5033416;28;1275;-71
2024/01/15 05:53:35;;;;;;;;;;;;;;;;;;5034653;28;921;-71
2024/01/15 05:56:01;;;;;;;;;;;;;;;;;;5034657;28;870;-71
2024/01/15 05:58:26;;;;;;;;;;;;;;;;;;5034492;28;923;-71
2024/01/15 06:00:51;;;;;;;;;;;;;;;;;;5050199;28;1196;-71
2024/01/15 06:03:16;;;;;;;;;;;;;;;;;;5034509;28;1946;-71
2024/01/15 06:05:42;;;;;;;;;;;;;;;;;;5016767;28;1181;-72
2024/01/15 06:08:07;;;;;;;;;;;;;;;;;;5034945;28;1064;-72
2024/01/15 06:10:32;;;;;;;;;;;;;;;;;;5034612;28;1093;-71
2024/01/15 06:12:57;;;;;;;;;;;;;;;;;;5049495;28;1279;-71
2024/01/15 06:15:23;;;;;;;;;;;;;;;;;;5050342;28;1207;-70
2024/01/15 06:17:48;;;;;;;;;;;;;;;;;;5049784;28;1266;-71
2024/01/15 06:20:13;;;;;;;;;;;;;;;;;;5033185;28;1254;-70
2024/01/15 06:22:39;;;;;;;;;;;;;;;;;;5034416;28;1918;-71
2024/01/15 06:25:05;;;;;;;;;;;;;;;;;;5034309;28;884;-71
2024/01/15 06:27:30;;;;;;;;;;;;;;;;;;5029671;28;1402;-71
2024/01/15 06:29:56;;;;;;;;;;;;;;;;;;5023892;28;1196;-71
2024/01/15 06:32:21;;;;;;;;;;;;;;;;;;5013886;28;1302;-72
2024/01/15 06:34:46;;;;;;;;;;;;;;;;;;5031151;28;1255;-71
2024/01/15 06:37:11;;;;;;;;;;;;;;;;;;5031528;28;1225;-71
2024/01/15 06:39:37;;;;;;;;;;;;;;;;;;5031897;28;1201;-76
2024/01/15 06:42:02;;;;;;;;;;;;;;;;;;5021348;28;1186;-76
2024/01/15 06:44:27;;;;;;;;;;;;;;;;;;5032556;28;1910;-76
2024/01/15 06:46:57;;;;;;;;;;;;;;;;;;5014779;28;1287;-77
2024/01/15 06:49:22;;;;;;;;;;;;;;;;;;5017759;28;1299;-77
2024/01/15 06:51:48;;;;;;;;;;;;;;;;;;5031138;28;1302;-76
2024/01/15 06:54:13;;;;;;;;;;;;;;;;;;5034176;28;1212;-76
2024/01/15 06:56:38;;;;;;;;;;;;;;;;;;5017104;28;1189;-78
2024/01/15 06:59:04;;;;;;;;;;;;;;;;;;5034381;28;939;-76
2024/01/15 07:01:29;;;;;;;;;;;;;;;;;;5034681;28;842;-78
2024/01/15 07:03:54;;;;;;;;;;;;;;;;;;5034535;28;1977;-76
2024/01/15 07:06:19;;;;;;;;;;;;;;;;;;5033305;28;956;-77
2024/01/15 07:08:45;;;;;;;;;;;;;;;;;;5034585;28;946;-77
2024/01/15 07:11:10;;;;;;;;;;;;;;;;;;5034224;28;907;-77
2024/01/15 07:13:36;;;;;;;;;;;;;;;;;;5033932;28;908;-77
2024/01/15 07:16:02;;;;;;;;;;;;;;;;;;5032898;28;1440;-77
2024/01/15 07:18:27;;;;;;;;;;;;;;;;;;5033936;28;809;-77
2024/01/15 07:20:52;;;;;;;;;;;;;;;;;;5034029;28;875;-77
2024/01/15 07:23:17;;;;;;;;;;;;;;;;;;5033984;28;1882;-77
2024/01/15 07:25:43;;;;;;;;;;;;;;;;;;5033974;28;912;-77
2024/01/15 07:28:08;;;;;;;;;;;;;;;;;;5033562;28;880;-78
2024/01/15 07:30:33;;;;;;;;;;;;;;;;;;5032276;28;1431;-77
2024/01/15 07:32:58;;;;;;;;;;;;;;;;;;5015284;28;1268;-77
2024/01/15 07:35:24;;;;;;;;;;;;;;;;;;5033242;28;876;-77
2024/01/15 07:37:49;;;;;;;;;;;;;;;;;;5032431;28;1149;-77
2024/01/15 07:40:14;;;;;;;;;;;;;;;;;;5033389;28;845;-77
2024/01/15 07:42:40;;;;;;;;;;;;;;;;;;5033451;28;1898;-77
2024/01/15 07:45:05;;;;;;;;;;;;;;;;;;5033916;28;817;-76
2024/01/15 07:47:31;;;;;;;;;;;;;;;;;;5033632;28;785;-71
2024/01/15 07:49:56;;;;;;;;;;;;;;;;;;5033036;28;916;-71
2024/01/15 07:52:21;;;;;;;;;;;;;;;;;;5033904;28;865;-71
2024/01/15 07:54:47;;;;;;;;;;;;;;;;;;5037286;28;797;-71
2024/01/15 07:57:12;;;;;;;;;;;;;;;;;;5035442;28;1339;-71
2024/01/15 07:59:37;;;;;;;;;;;;;;;;;;5036383;28;995;-71
2024/01/15 08:02:02;;;;;;;;;;;;;;;;;;5036942;28;900;-71
2024/01/15 08:04:28;;;;;;;;;;;;;;;;;;5036631;28;1910;-71
2024/01/15 08:06:53;;;;;;;;;;;;;;;;;;5036355;28;821;-71
2024/01/15 08:09:18;;;;;;;;;;;;;;;;;;5035410;28;1236;-71
2024/01/15 08:11:43;;;;;;;;;;;;;;;;;;5036207;28;1130;-71
2024/01/15 08:14:09;;;;;;;;;;;;;;;;;;5018577;28;1359;-71
2024/01/15 08:16:35;;;;;;;;;;;;;;;;;;5018437;28;1137;-72
2024/01/15 08:19:00;;;;;;;;;;;;;;;;;;5036243;28;1042;-72
2024/01/15 08:21:27;;;;;;;;;;;;;;;;;;5017197;28;1145;-71
2024/01/15 08:23:52;;;;;;;;;;;;;;;;;;5018677;28;1914;-71
2024/01/15 08:26:17;;;;;;;;;;;;;;;;;;5036920;28;901;-71
2024/01/15 08:28:42;;;;;;;;;;;;;;;;;;5036605;28;912;-71
2024/01/15 08:31:08;;;;;;;;;;;;;;;;;;5036345;28;848;-72
2024/01/15 08:33:34;;;;;;;;;;;;;;;;;;5036413;28;928;-71
2024/01/15 08:35:59;;;;;;;;;;;;;;;;;;5035329;28;936;-71
2024/01/15 08:38:25;;;;;;;;;;;;;;;;;;5036438;28;889;-71
2024/01/15 08:40:51;;;;;;;;;;;;;;;;;;5018723;28;1221;-72
2024/01/15 08:43:16;;;;;;;;;;;;;;;;;;5036560;28;1891;-71
2024/01/15 08:45:41;;;;;;;;;;;;;;;;;;5036349;28;1019;-72
2024/01/15 08:48:06;;;;;;;;;;;;;;;;;;5036209;28;908;-71
2024/01/15 08:50:32;;;;;;;;;;;;;;;;;;5036631;28;833;-72
2024/01/15 08:52:57;;;;;;;;;;;;;;;;;;5036230;28;999;-71
2024/01/15 08:55:23;;;;;;;;;;;;;;;;;;5018060;28;1255;-71
2024/01/15 08:57:48;;;;;;;;;;;;;;;;;;5036279;28;837;-71
2024/01/15 09:00:14;;;;;;;;;;;;;;;;;;5035440;28;839;-71
2024/01/15 09:02:39;;;;;;;;;;;;;;;;;;5017757;28;1965;-72
2024/01/15 09:05:04;;;;;;;;;;;;;;;;;;5035053;28;1173;-72
2024/01/15 09:07:30;;;;;;;;;;;;;;;;;;5033063;28;1157;-72
2024/01/15 09:09:55;;;;;;;;;;;;;;;;;;5033307;28;1152;-72
2024/01/15 09:12:22;;;;;;;;;;;;;;;;;;5015513;28;1240;-72
2024/01/15 09:14:47;;;;;;;;;;;;;;;;;;5031353;28;1439;-72
2024/01/15 09:17:12;;;;;;;;;;;;;;;;;;5033409;28;1200;-72
2024/01/15 09:19:39;;;;;;;;;;;;;;;;;;5033446;28;1154;-71
2024/01/15 09:22:05;;;;;;;;;;;;;;;;;;5031702;28;1251;-72
2024/01/15 09:24:30;;;;;;;;;;;;;;;;;;5034102;28;1971;-72
2024/01/15 09:26:55;;;;;;;;;;;;;;;;;;5034234;28;1063;-71
2024/01/15 09:29:20;;;;;;;;;;;;;;;;;;5035699;28;920;-71
2024/01/15 09:31:46;;;;;;;;;;;;;;;;;;5035104;28;967;-71
2024/01/15 09:34:11;;;;;;;;;;;;;;;;;;5035083;28;888;-72
2024/01/15 09:36:43;;;;;;;;;;;;;;;;;;5034932;28;825;-72
2024/01/15 09:39:08;;;;;;;;;;;;;;;;;;5035194;28;1078;-72
2024/01/15 09:41:37;;;;;;;;;;;;;;;;;;5017124;28;1152;-71
2024/01/15 09:44:03;;;;;;;;;;;;;;;;;;5017293;28;1961;-71
2024/01/15 09:46:28;;;;;;;;;;;;;;;;;;5035017;28;880;-72
2024/01/15 09:48:53;;;;;;;;;;;;;;;;;;5034559;28;900;-72
2024/01/15 09:51:19;;;;;;;;;;;;;;;;;;5034987;28;885;-71
2024/01/15 09:53:45;;;;;;;;;;;;;;;;;;5034853;28;1014;-71
2024/01/15 09:56:11;;;;;;;;;;;;;;;;;;5034682;28;917;-71
2024/01/15 09:58:37;;;;;;;;;;;;;;;;;;5034866;28;932;-71
2024/01/15 10:01:05;;;;;;;;;;;;;;;;;;5016756;28;1157;-71
2024/01/15 10:03:30;;;;;;;;;;;;;;;;;;5016832;28;1903;-71
2024/01/15 10:05:58;;;;;;;;;;;;;;;;;;5016719;28;1201;-71
2024/01/15 10:08:25;;;;;;;;;;;;;;;;;;5029884;28;1240;-71
2024/01/15 10:10:50;;;;;;;;;;;;;;;;;;5026599;28;1347;-71
2024/01/15 10:13:15;;;;;;;;;;;;;;;;;;5031006;28;1134;-71
2024/01/15 10:15:42;;;;;;;;;;;;;;;;;;5030067;28;1137;-71
2024/01/15 10:18:07;;;;;;;;;;;;;;;;;;5027126;28;1533;-70
2024/01/15 10:20:33;;;;;;;;;;;;;;;;;;5032290;28;1161;-70
2024/01/15 10:22:58;;;;;;;;;;;;;;;;;;5032838;28;1952;-69
2024/01/15 10:25:25;;;;;;;;;;;;;;;;;;5031372;28;1394;-70
2024/01/15 10:28:04;;;;;;;;;;;;;;;;;;5039553;28;1318;-71
2024/01/15 10:30:29;;;;;;;;;;;;;;;;;;5031927;28;1062;-70
2024/01/15 10:32:59;;;;;;;;;;;;;;;;;;5016499;28;1136;-70
2024/01/15 10:35:26;;;;;;;;;;;;;;;;;;5034045;28;841;-71
2024/01/15 10:37:51;;;;;;;;;;;;;;;;;;5033454;28;1273;-75
2024/01/15 10:40:18;;;;;;;;;;;;;;;;;;5034911;28;891;-75
2024/01/15 10:42:43;;;;;;;;;;;;;;;;;;5034893;28;1897;-75
2024/01/15 10:45:09;;;;;;;;;;;;;;;;;;5034845;28;1030;-75
2024/01/15 10:47:34;;;;;;;;;;;;;;;;;;5035122;28;915;-76
2024/01/15 10:50:00;;;;;;;;;;;;;;;;;;5034775;28;928;-75
2024/01/15 10:52:25;;;;;;;;;;;;;;;;;;5034826;28;852;-75
2024/01/15 10:54:51;;;;;;;;;;;;;;;;;;5034778;28;860;-75
2024/01/15 10:57:16;;;;;;;;;;;;;;;;;;5017434;28;1300;-75
2024/01/15 10:59:42;;;;;;;;;;;;;;;;;;5034474;28;1105;-75
2024/01/15 11:02:07;;;;;;;;;;;;;;;;;;5034162;28;966;-76
2024/01/15 11:04:33;;;;;;;;;;;;;;;;;;5034684;28;1966;-76
2024/01/15 11:06:58;;;;;;;;;;;;;;;;;;5034201;28;1192;-75
2024/01/15 11:09:24;;;;;;;;;;;;;;;;;;5025451;28;1224;-76
2024/01/15 11:11:51;;;;;;;;;;;;;;;;;;5028177;28;1321;-71
2024/01/15 11:14:35;;;;;;;;;;;;;;;;;;5028393;28;1134;-71
2024/01/15 11:17:01;;;;;;;;;;;;;;;;;;5027018;28;1337;-71
2024/01/15 11:19:35;;;;;;;;;;;;;;;;;;5025685;28;1205;-71
2024/01/15 11:22:00;;;;;;;;;;;;;;;;;;5011397;28;1445;-71
2024/01/15 11:24:38;;;;;;;;;;;;;;;;;;5027713;28;1977;-71
2024/01/15 11:27:04;;;;;;;;;;;;;;;;;;5028021;28;1189;-72
2024/01/15 11:29:36;;;;;;;;;;;;;;;;;;5024117;28;1154;-71
2024/01/15 11:32:04;;;;;;;;;;;;;;;;;;5025857;28;1129;-70
2024/01/15 11:34:48;;;;;;;;;;;;;;;;;;5028387;28;1221;-71
2024/01/15 11:37:13;;;;;;;;;;;;;;;;;;5022683;28;1133;-71
2024/01/15 11:39:38;;;;;;;;;;;;;;;;;;5011290;28;1262;-71
2024/01/15 11:42:04;;;;;;;;;;;;;;;;;;5027206;28;1209;-71
2024/01/15 11:44:30;;;;;;;;;;;;;;;;;;5029584;28;1965;-71
2024/01/15 11:47:05;;;;;;;;;;;;;;;;;;5030119;28;1229;-71
2024/01/15 11:49:33;;;;;;;;;;;;;;;;;;5029882;28;1169;-71
2024/01/15 11:52:00;;;;;;;;;;;;;;;;;;5024910;28;1257;-71
2024/01/15 11:54:28;;;;;;;;;;;;;;;;;;5033259;28;999;-71
2024/01/15 11:56:54;;;;;;;;;;;;;;;;;;5033332;28;929;-71
2024/01/15 11:59:19;;;;;;;;;;;;;;;;;;5048451;28;1135;-71
2024/01/15 12:01:45;;;;;;;;;;;;;;;;;;5033047;28;998;-71
2024/01/15 12:04:10;;;;;;;;;;;;;;;;;;5033107;28;1967;-72
2024/01/15 12:06:35;;;;;;;;;;;;;;;;;;5033401;28;911;-71
2024/01/15 12:09:07;;;;;;;;;;;;;;;;;;5031526;28;1240;-70
2024/01/15 12:11:36;;;;;;;;;;;;;;;;;;5011711;28;1339;-71
2024/01/15 12:14:01;;;;;;;;;;;;;;;;;;5027698;28;1244;-71
2024/01/15 12:16:26;;;;;;;;;;;;;;;;;;5030001;28;1154;-71
2024/01/15 12:18:51;;;;;;;;;;;;;;;;;;5028744;28;1287;-71
2024/01/15 12:21:17;;;;;;;;;;;;;;;;;;5032163;28;1180;-71
2024/01/15 12:23:45;;;;;;;;;;;;;;;;;;5033424;28;1906;-71
2024/01/15 12:26:11;;;;;;;;;;;;;;;;;;5033729;28;896;-71
2024/01/15 12:28:36;;;;;;;;;;;;;;;;;;5032135;28;1176;-71
2024/01/15 12:31:05;;;;;;;;;;;;;;;;;;5034133;28;865;-71
2024/01/15 12:33:30;;;;;;;;;;;;;;;;;;5016144;28;1440;-71
2024/01/15 12:35:55;;;;;;;;;;;;;;;;;;5015368;28;1270;-71
2024/01/15 12:38:20;;;;;;;;;;;;;;;;;;5034038;28;940;-71
2024/01/15 12:40:49;;;;;;;;;;;;;;;;;;5020614;28;1440;-70
2024/01/15 12:43:14;;;;;;;;;;;;;;;;;;5037354;28;1886;-70
2024/01/15 12:45:40;;;;;;;;;;;;;;;;;;5036995;28;820;-70
2024/01/15 12:48:05;;;;;;;;;;;;;;;;;;5018323;28;1248;-71
2024/01/15 12:50:33;;;;;;;;;;;;;;;;;;5032686;28;1181;-70
2024/01/15 12:52:59;;;;;;;;;;;;;;;;;;5032951;28;1236;-71
2024/01/15 12:55:24;;;;;;;;;;;;;;;;;;5014460;28;1375;-71
2024/01/15 12:57:52;;;;;;;;;;;;;;;;;;5019352;28;1294;-70
2024/01/15 13:00:17;;;;;;;;;;;;;;;;;;5033001;28;1323;-71
2024/01/15 13:02:43;;;;;;;;;;;;;;;;;;5036552;28;824;-71
2024/01/15 13:05:12;;;;;;;;;;;;;;;;;;5036325;28;954;-70
2024/01/15 13:07:37;;;;;;;;;;;;;;;;;;5038064;28;1007;-71
2024/01/15 13:10:02;;;;;;;;;;;;;;;;;;5018216;28;1209;-71
2024/01/15 13:12:28;;;;;;;;;;;;;;;;;;5031454;28;1233;-71
2024/01/15 13:14:53;;;;;;;;;;;;;;;;;;5030903;28;1232;-71
2024/01/15 13:17:20;;;;;;;;;;;;;;;;;;5029924;28;1149;-71
2024/01/15 13:19:45;;;;;;;;;;;;;;;;;;5021356;28;1051;-71
2024/01/15 13:22:13;;;;;;;;;;;;;;;;;;5031854;28;1252;-72
2024/01/15 13:24:38;;;;;;;;;;;;;;;;;;5030808;28;1910;-71
2024/01/15 13:27:04;;;;;;;;;;;;;;;;;;5035611;28;1026;-72
2024/01/15 13:29:30;;;;;;;;;;;;;;;;;;5036607;28;833;-71
2024/01/15 13:31:55;;;;;;;;;;;;;;;;;;5052250;28;1270;-71
2024/01/15 13:34:20;;;;;;;;;;;;;;;;;;5036607;28;995;-71
2024/01/15 13:36:45;;;;;;;;;;;;;;;;;;5036267;28;928;-71
2024/01/15 13:39:10;;;;;;;;;;;;;;;;;;5037671;28;920;-72
2024/01/15 13:41:36;;;;;;;;;;;;;;;;;;5035949;28;1167;-72
2024/01/15 13:44:01;;;;;;;;;;;;;;;;;;5036559;28;1906;-72
2024/01/15 13:46:26;;;;;;;;;;;;;;;;;;5036766;28;1023;-72
2024/01/15 13:48:52;;;;;;;;;;;;;;;;;;5036575;28;940;-72
2024/01/15 13:51:17;;;;;;;;;;;;;;;;;;5035953;28;955;-71
2024/01/15 13:53:42;;;;;;;;;;;;;;;;;;5035234;28;1007;-72
2024/01/15 13:56:10;;;;;;;;;;;;;;;;;;5036477;28;935;-72
2024/01/15 13:58:35;;;;;;;;;;;;;;;;;;5036689;28;849;-72
2024/01/15 14:01:01;;;;;;;;;;;;;;;;;;5035183;28;1257;-72
2024/01/15 14:03:26;;;;;;;;;;;;;;;;;;5036708;28;1902;-72
2024/01/15 14:05:52;;;;;;;;;;;;;;;;;;5036461;28;861;-72
2024/01/15 14:08:17;;;;;;;;;;;;;;;;;;5036640;28;841;-72
2024/01/15 14:10:42;;;;;;;;;;;;;;;;;;5028266;28;1308;-72
2024/01/15 14:13:08;;;;;;;;;;;;;;;;;;5025079;28;1153;-71
2024/01/15 14:15:33;;;;;;;;;;;;;;;;;;5027172;28;1354;-71
2024/01/15 14:18:00;;;;;;;;;;;;;;;;;;5032356;28;1216;-72
2024/01/15 14:20:25;;;;;;;;;;;;;;;;;;5033077;28;1410;-72
2024/01/15 14:22:50;;;;;;;;;;;;;;;;;;5034725;28;1976;-72
2024/01/15 14:25:15;;;;;;;;;;;;;;;;;;5034862;28;825;-72
2024/01/15 14:27:40;;;;;;;;;;;;;;;;;;5034409;28;739;-71
2024/01/15 14:30:07;;;;;;;;;;;;;;;;;;5034183;28;1054;-71
2024/01/15 14:32:32;;;;;;;;;;;;;;;;;;5034369;28;892;-72
2024/01/15 14:34:58;;;;;;;;;;;;;;;;;;5034002;28;899;-71
2024/01/15 14:37:23;;;;;;;;;;;;;;;;;;5033838;28;895;-72
2024/01/15 14:39:48;;;;;;;;;;;;;;;;;;5030981;28;1229;-71
2024/01/15 14:42:14;;;;;;;;;;;;;;;;;;5029683;28;1157;-71
2024/01/15 14:44:40;;;;;;;;;;;;;;;;;;5029274;28;1883;-73
2024/01/15 14:47:06;;;;;;;;;;;;;;;;;;5029408;28;1161;-71
2024/01/15 14:49:31;;;;;;;;;;;;;;;;;;5031364;28;1177;-72
2024/01/15 14:51:56;;;;;;;;;;;;;;;;;;5030869;28;1186;-72
2024/01/15 14:54:22;;;;;;;;;;;;;;;;;;5030445;28;1180;-71
2024/01/15 14:56:47;;;;;;;;;;;;;;;;;;5016252;28;1211;-72
2024/01/15 14:59:14;;;;;;;;;;;;;;;;;;5033572;28;832;-72
2024/01/15 15:01:39;;;;;;;;;;;;;;;;;;5033336;28;837;-71
2024/01/15 15:04:05;;;;;;;;;;;;;;;;;;5029424;28;1898;-72
2024/01/15 15:06:30;;;;;;;;;;;;;;;;;;5027636;28;1377;-71
2024/01/15 15:08:55;;;;;;;;;;;;;;;;;;5030210;28;1158;-72
2024/01/15 15:11:22;;;;;;;;;;;;;;;;;;5029650;28;1189;-72
2024/01/15 15:13:49;;;;;;;;;;;;;;;;;;5010375;28;1472;-72
2024/01/15 15:16:14;;;;;;;;;;;;;;;;;;5026075;28;1282;-72
2024/01/15 15:18:39;;;;;;;;;;;;;;;;;;5028107;28;1436;-72
2024/01/15 15:21:06;;;;;;;;;;;;;;;;;;5028262;28;1162;-71
2024/01/15 15:23:32;;;;;;;;;;;;;;;;;;5033037;28;1898;-72
2024/01/15 15:25:57;;;;;;;;;;;;;;;;;;5033010;28;904;-71
2024/01/15 15:28:22;;;;;;;;;;;;;;;;;;5015399;28;1316;-71
2024/01/15 15:30:47;;;;;;;;;;;;;;;;;;5015614;28;1195;-70
2024/01/15 15:33:14;;;;;;;;;;;;;;;;;;5033063;28;881;-71
2024/01/15 15:35:39;;;;;;;;;;;;;;;;;;5015392;28;1318;-71
2024/01/15 15:38:04;;;;;;;;;;;;;;;;;;5033135;28;912;-71
2024/01/15 15:40:29;;;;;;;;;;;;;;;;;;5032942;28;896;-71
2024/01/15 15:42:55;;;;;;;;;;;;;;;;;;5013599;28;1977;-71
2024/01/15 15:45:20;;;;;;;;;;;;;;;;;;5015680;28;1427;-71
2024/01/15 15:47:45;;;;;;;;;;;;;;;;;;5015420;28;1197;-70
2024/01/15 15:50:10;;;;;;;;;;;;;;;;;;5033282;28;868;-70
2024/01/15 15:52:35;;;;;;;;;;;;;;;;;;5015503;28;1330;-71
2024/01/15 15:55:02;;;;;;;;;;;;;;;;;;5015299;28;1163;-70
2024/01/15 15:57:27;;;;;;;;;;;;;;;;;;5033587;28;917;-71
2024/01/15 15:59:55;;;;;;;;;;;;;;;;;;5015084;28;1414;-71
2024/01/15 16:02:21;;;;;;;;;;;;;;;;;;5040655;28;892;-71
2024/01/15 16:04:48;;;;;;;;;;;;;;;;;;5033406;28;1957;-72
2024/01/15 16:07:14;;;;;;;;;;;;;;;;;;5015637;28;1258;-71
2024/01/15 16:09:39;;;;;;;;;;;;;;;;;;5034008;28;841;-71
2024/01/15 16:12:05;;;;;;;;;;;;;;;;;;5015468;28;1283;-71
2024/01/15 16:14:30;;;;;;;;;;;;;;;;;;5033691;28;1438;-71
2024/01/15 16:16:57;;;;;;;;;;;;;;;;;;5005777;28;1228;-71
2024/01/15 16:19:22;;;;;;;;;;;;;;;;;;5031839;28;1238;-71
2024/01/15 16:21:48;;;;;;;;;;;;;;;;;;5015010;28;1254;-71
2024/01/15 16:24:13;;;;;;;;;;;;;;;;;;5033298;28;1898;-71
2024/01/15 16:26:38;;;;;;;;;;;;;;;;;;5037394;28;880;-71
2024/01/15 16:29:03;;;;;;;;;;;;;;;;;;5019077;28;1393;-71
2024/01/15 16:31:28;;;;;;;;;;;;;;;;;;5019820;28;1124;-70
2024/01/15 16:33:54;;;;;;;;;;;;;;;;;;5036885;28;995;-71
2024/01/15 16:36:20;;;;;;;;;;;;;;;;;;5018649;28;1176;-72
2024/01/15 16:38:46;;;;;;;;;;;;;;;;;;5036321;28;856;-71
2024/01/15 16:41:11;;;;;;;;;;;;;;;;;;5036566;28;816;-72
2024/01/15 16:43:36;;;;;;;;;;;;;;;;;;5035902;28;1909;-71
2024/01/15 16:46:01;;;;;;;;;;;;;;;;;;5036095;28;841;-70
2024/01/15 16:48:27;;;;;;;;;;;;;;;;;;5036735;28;884;-70
2024/01/15 16:50:53;;;;;;;;;;;;;;;;;;5036371;28;919;-71
2024/01/15 16:53:19;;;;;;;;;;;;;;;;;;5036916;28;811;-71
2024/01/15 16:55:44;;;;;;;;;;;;;;;;;;5036180;28;1058;-71
2024/01/15 16:58:09;;;;;;;;;;;;;;;;;;5036721;28;919;-70
2024/01/15 17:00:34;;;;;;;;;;;;;;;;;;5036361;28;935;-71